Time;durP1;ratioP1;P1;durP2;ratioP2;P2;SDS_P1;SDS_P2;PMS_P1;PMS_P2;Temp;Humidity;BMP_temperature;BMP_pressure;BME280_temperature;BME280_humidity;BME280_pressure;Samples;Min_cycle;Max_cycle;Signal;HPM_P1;HPM_P2
2022/06/28 00:01:09;;;;;;;1.10;1.10;;;21.80;63.70;;;;;;4788141;29;43563;-59
2022/06/28 00:03:37;;;;;;;1.35;0.98;;;21.80;63.70;;;;;;4793769;29;44799;-59
2022/06/28 00:06:04;;;;;;;1.00;1.00;;;21.80;63.70;;;;;;4794153;29;43543;-59
2022/06/28 00:08:32;;;;;;;0.90;0.90;;;21.80;63.70;;;;;;4793803;29;43413;-59
2022/06/28 00:10:59;;;;;;;0.82;0.82;;;21.70;63.60;;;;;;4794728;29;43676;-59
2022/06/28 00:13:27;;;;;;;1.30;1.00;;;21.80;63.70;;;;;;4793370;29;43813;-59
2022/06/28 00:16:07;;;;;;;1.35;1.25;;;21.80;63.70;;;;;;4793904;29;43748;-59
2022/06/28 00:18:39;;;;;;;0.97;0.97;;;21.70;63.70;;;;;;4794520;29;43595;-59
2022/06/28 00:21:08;;;;;;;1.00;1.00;;;21.80;63.70;;;;;;4794380;29;43460;-59
2022/06/28 00:23:37;;;;;;;1.00;1.00;;;21.70;63.60;;;;;;4792946;29;44704;-59
2022/06/28 00:26:06;;;;;;;0.95;0.90;;;21.70;63.70;;;;;;4795044;29;44056;-59
2022/06/28 00:28:36;;;;;;;0.95;0.95;;;21.70;64.30;;;;;;4794209;29;43475;-59
2022/06/28 00:31:04;;;;;;;0.80;0.80;;;21.70;63.70;;;;;;4794245;29;43490;-59
2022/06/28 00:33:32;;;;;;;0.90;0.90;;;21.70;63.60;;;;;;4793521;29;44201;-59
2022/06/28 00:35:59;;;;;;;1.35;1.10;;;21.70;63.70;;;;;;4794919;29;43889;-59
2022/06/28 00:38:27;;;;;;;1.45;1.10;;;21.70;63.70;;;;;;4792023;29;43535;-59
2022/06/28 00:40:56;;;;;;;1.65;1.20;;;21.70;63.70;;;;;;4793562;29;44104;-59
2022/06/28 00:43:25;;;;;;;1.42;1.20;;;21.70;63.70;;;;;;4792386;29;45034;-59
2022/06/28 00:45:53;;;;;;;1.00;1.00;;;21.60;63.60;;;;;;4793136;29;44037;-59
2022/06/28 00:48:21;;;;;;;1.27;1.15;;;21.70;63.60;;;;;;4793593;29;43427;-59
2022/06/28 00:50:49;;;;;;;1.15;1.15;;;21.70;63.60;;;;;;4784780;29;43524;-59
2022/06/28 00:53:18;;;;;;;1.00;1.00;;;21.60;63.50;;;;;;4796748;29;44009;-59
2022/06/28 00:55:47;;;;;;;1.10;1.00;;;21.60;63.50;;;;;;4787824;29;43476;-59
2022/06/28 00:58:15;;;;;;;1.17;1.13;;;21.60;63.60;;;;;;4795058;29;43463;-59
2022/06/28 01:00:46;;;;;;;1.10;1.00;;;21.60;63.60;;;;;;4770969;29;43499;-59
2022/06/28 01:03:18;;;;;;;2.70;1.20;;;21.60;63.60;;;;;;4779110;29;44984;-59
2022/06/28 01:05:48;;;;;;;1.00;1.00;;;21.60;63.60;;;;;;4780065;29;43373;-59
2022/06/28 01:08:16;;;;;;;1.45;0.90;;;21.60;63.50;;;;;;4780528;29;43507;-59
2022/06/28 01:10:45;;;;;;;0.90;0.90;;;21.60;63.60;;;;;;4795952;29;43602;-59
2022/06/28 01:13:14;;;;;;;0.80;0.80;;;21.60;63.60;;;;;;4778896;29;45047;-59
2022/06/28 01:15:44;;;;;;;1.05;1.02;;;21.60;63.60;;;;;;4779993;29;43962;-59
2022/06/28 01:18:13;;;;;;;0.98;0.98;;;21.60;63.50;;;;;;4780164;29;43450;-59
2022/06/28 01:20:45;;;;;;;1.02;1.02;;;21.60;63.60;;;;;;4779708;29;43484;-59
2022/06/28 01:23:35;;;;;;;0.98;0.98;;;21.60;64.20;;;;;;4779694;29;43796;-59
2022/06/28 01:26:19;;;;;;;1.15;1.05;;;21.60;63.60;;;;;;4778774;29;43504;-59
2022/06/28 01:28:49;;;;;;;1.10;1.00;;;21.50;63.50;;;;;;4781052;29;43440;-59
2022/06/28 01:31:37;;;;;;;1.33;0.90;;;21.50;63.60;;;;;;4772126;29;43481;-59
2022/06/28 01:34:05;;;;;;;1.38;1.20;;;21.50;63.50;;;;;;4779380;29;44720;-59
2022/06/28 01:36:33;;;;;;;0.90;0.90;;;21.50;63.50;;;;;;4780005;29;43528;-59
2022/06/28 01:39:03;;;;;;;1.00;1.00;;;21.50;63.50;;;;;;4778924;29;43460;-59
2022/06/28 01:41:36;;;;;;;0.85;0.85;;;21.50;63.50;;;;;;4779475;29;43559;-59
2022/06/28 01:44:10;;;;;;;0.90;0.90;;;21.50;63.50;;;;;;4773852;29;44649;-59
2022/06/28 01:46:55;;;;;;;0.80;0.80;;;21.50;63.50;;;;;;4778016;29;44053;-59
2022/06/28 01:49:27;;;;;;;1.02;1.02;;;21.50;63.50;;;;;;4778682;29;43478;-59
2022/06/28 01:51:55;;;;;;;1.00;1.00;;;21.50;63.50;;;;;;4800587;29;43531;-59
2022/06/28 01:54:23;;;;;;;1.00;1.00;;;21.50;63.50;;;;;;4778509;29;44656;-59
2022/06/28 01:56:50;;;;;;;1.10;1.10;;;21.50;63.50;;;;;;4798474;29;44088;-59
2022/06/28 01:59:22;;;;;;;0.88;0.88;;;21.40;63.50;;;;;;4784284;29;43477;-59
2022/06/28 02:02:01;;;;;;;1.05;1.05;;;21.50;63.50;;;;;;4774979;29;43413;-59
2022/06/28 02:04:41;;;;;;;0.88;0.88;;;21.40;63.50;;;;;;4778962;29;45080;-59
2022/06/28 02:07:09;;;;;;;1.63;1.15;;;21.40;63.50;;;;;;4776933;29;43981;-59
2022/06/28 02:09:39;;;;;;;0.90;0.90;;;21.40;63.50;;;;;;4776926;29;43420;-59
2022/06/28 02:12:07;;;;;;;0.95;0.95;;;21.40;63.50;;;;;;4780696;29;43494;-59
2022/06/28 02:14:34;;;;;;;1.13;1.02;;;21.40;63.40;;;;;;4778746;29;44712;-59
2022/06/28 02:17:03;;;;;;;1.00;1.00;;;21.40;63.40;;;;;;4779466;29;43472;-59
2022/06/28 02:19:31;;;;;;;0.82;0.82;;;21.40;63.50;;;;;;4779318;29;43462;-59
2022/06/28 02:21:59;;;;;;;0.80;0.80;;;21.40;63.40;;;;;;4796015;29;43502;-59
2022/06/28 02:24:30;;;;;;;0.90;0.90;;;21.40;63.50;;;;;;4778137;29;44834;-59
2022/06/28 02:26:57;;;;;;;1.10;1.00;;;21.30;63.40;;;;;;4779556;29;43693;-59
2022/06/28 02:29:24;;;;;;;0.90;0.90;;;21.40;63.50;;;;;;4794951;29;43406;-59
2022/06/28 02:31:52;;;;;;;0.90;0.90;;;21.40;63.40;;;;;;4780189;29;43562;-59
2022/06/28 02:42:37;;;;;;;1.05;0.98;;;21.30;63.40;;;;;;4769029;29;43561;-59
2022/06/28 02:45:05;;;;;;;0.70;0.70;;;21.30;63.40;;;;;;4778702;29;44880;-59
2022/06/28 02:47:33;;;;;;;1.02;0.90;;;21.30;63.40;;;;;;4795451;29;44342;-59
2022/06/28 02:50:01;;;;;;;1.10;1.00;;;21.30;64.10;;;;;;4796076;29;43412;-59
2022/06/28 02:52:28;;;;;;;0.90;0.90;;;21.30;63.40;;;;;;4787604;29;43580;-59
2022/06/28 02:54:56;;;;;;;0.90;0.90;;;21.30;63.40;;;;;;4794938;29;45007;-59
2022/06/28 02:57:24;;;;;;;0.88;0.88;;;21.30;63.40;;;;;;4794464;29;44086;-59
2022/06/28 02:59:57;;;;;;;1.20;1.10;;;21.30;63.40;;;;;;4779217;29;43432;-59
2022/06/28 03:02:25;;;;;;;0.70;0.70;;;21.30;63.40;;;;;;4778112;29;43645;-59
2022/06/28 03:04:53;;;;;;;1.17;1.17;;;21.30;63.40;;;;;;4777620;29;44096;-59
2022/06/28 03:07:20;;;;;;;0.88;0.88;;;21.30;63.40;;;;;;4779556;29;45285;-59
2022/06/28 03:09:47;;;;;;;0.90;0.90;;;21.30;63.40;;;;;;4777167;29;43482;-59
2022/06/28 03:12:15;;;;;;;0.90;0.80;;;21.30;63.40;;;;;;4778278;29;43519;-59
2022/06/28 03:14:42;;;;;;;1.00;0.90;;;21.30;63.40;;;;;;4794558;29;44715;-59
2022/06/28 03:17:09;;;;;;;0.80;0.80;;;21.30;63.40;;;;;;4779454;29;43828;-59
2022/06/28 03:19:37;;;;;;;0.93;0.90;;;21.20;63.30;;;;;;4777620;29;43410;-59
2022/06/28 03:22:04;;;;;;;1.38;1.10;;;21.20;63.30;;;;;;4778301;29;43591;-59
2022/06/28 03:24:32;;;;;;;0.93;0.93;;;21.20;63.40;;;;;;4774727;29;45053;-59
2022/06/28 03:26:59;;;;;;;1.55;1.02;;;21.20;63.40;;;;;;4777711;29;43779;-59
2022/06/28 03:29:27;;;;;;;1.10;1.10;;;21.20;63.40;;;;;;4778992;29;43411;-59
2022/06/28 03:31:55;;;;;;;0.90;0.90;;;21.20;63.30;;;;;;4778559;29;43489;-59
2022/06/28 03:34:22;;;;;;;1.02;0.93;;;21.20;63.40;;;;;;4777314;29;45018;-59
2022/06/28 03:36:53;;;;;;;1.02;1.02;;;21.20;63.40;;;;;;4795041;29;44057;-59
2022/06/28 03:39:41;;;;;;;1.08;1.08;;;21.20;63.30;;;;;;4793766;29;43499;-59
2022/06/28 03:42:09;;;;;;;0.73;0.73;;;21.20;63.40;;;;;;4778570;29;43566;-59
2022/06/28 03:44:39;;;;;;;1.60;0.90;;;21.20;63.40;;;;;;4793754;29;44869;-59
2022/06/28 03:47:07;;;;;;;2.15;1.10;;;21.20;63.40;;;;;;4792436;29;43984;-59
2022/06/28 03:50:00;;;;;;;1.25;0.90;;;21.10;63.30;;;;;;4758466;29;43509;-59
2022/06/28 03:52:46;;;;;;;1.45;1.13;;;21.10;63.40;;;;;;4793913;29;43454;-59
2022/06/28 03:55:32;;;;;;;0.82;0.82;;;21.10;63.40;;;;;;4785183;29;44991;-59
2022/06/28 03:57:59;;;;;;;1.20;1.13;;;21.10;63.40;;;;;;4786132;29;44016;-59
2022/06/28 04:00:27;;;;;;;0.90;0.90;;;21.10;63.40;;;;;;4772290;29;43516;-59
2022/06/28 04:02:54;;;;;;;0.80;0.80;;;21.10;63.40;;;;;;4778419;29;43681;-59
2022/06/28 04:05:27;;;;;;;0.80;0.80;;;21.10;63.40;;;;;;4777660;29;44706;-59
2022/06/28 04:07:57;;;;;;;1.00;1.00;;;21.10;63.40;;;;;;4777783;29;44030;-59
2022/06/28 04:10:46;;;;;;;0.80;0.80;;;21.10;63.50;;;;;;4778161;29;43403;-59
2022/06/28 04:13:19;;;;;;;1.27;0.98;;;21.10;63.40;;;;;;4776543;29;43691;-59
2022/06/28 04:15:46;;;;;;;0.80;0.80;;;21.10;63.40;;;;;;4777335;29;43625;-59
2022/06/28 04:18:20;;;;;;;0.90;0.90;;;21.10;63.40;;;;;;4778134;29;43455;-59
2022/06/28 04:21:09;;;;;;;0.85;0.85;;;21.00;63.30;;;;;;4774748;29;44057;-59
2022/06/28 04:23:38;;;;;;;1.02;1.00;;;21.00;63.40;;;;;;4776970;29;43498;-59
2022/06/28 04:26:06;;;;;;;0.80;0.80;;;21.10;63.50;;;;;;4792568;29;44649;-59
2022/06/28 04:28:39;;;;;;;0.80;0.80;;;21.00;63.40;;;;;;4777139;29;44129;-59
2022/06/28 04:31:11;;;;;;;1.55;0.88;;;21.00;63.40;;;;;;4777999;29;44033;-59
2022/06/28 04:33:39;;;;;;;1.00;0.90;;;21.00;63.40;;;;;;4780050;29;43452;-59
2022/06/28 04:36:09;;;;;;;1.00;0.82;;;21.00;63.40;;;;;;4777887;29;44865;-59
2022/06/28 04:38:39;;;;;;;0.80;0.80;;;21.00;63.40;;;;;;4780642;29;43973;-59
2022/06/28 04:41:09;;;;;;;0.90;0.90;;;21.00;63.40;;;;;;4774481;29;43420;-59
2022/06/28 04:43:46;;;;;;;0.90;0.90;;;21.00;63.40;;;;;;4797237;29;43525;-59
2022/06/28 04:46:20;;;;;;;1.00;0.82;;;21.00;63.40;;;;;;4780320;29;44098;-59
2022/06/28 04:48:49;;;;;;;0.80;0.80;;;21.00;63.40;;;;;;4780695;29;43915;-59
2022/06/28 04:51:20;;;;;;;0.98;0.88;;;21.00;63.50;;;;;;4791611;29;43485;-59
2022/06/28 04:53:48;;;;;;;0.82;0.82;;;21.00;63.40;;;;;;4784627;29;43440;-59
2022/06/28 04:56:18;;;;;;;0.85;0.70;;;20.90;63.40;;;;;;4780047;29;44264;-59
2022/06/28 04:58:48;;;;;;;1.20;1.08;;;20.90;63.40;;;;;;4779522;29;43446;-59
2022/06/28 05:01:16;;;;;;;0.80;0.80;;;21.00;63.40;;;;;;4769150;29;43426;-59
2022/06/28 05:03:46;;;;;;;0.90;0.90;;;20.90;63.40;;;;;;4779848;29;43392;-59
2022/06/28 05:06:49;;;;;;;1.15;0.90;;;20.90;63.40;;;;;;4735105;29;44995;-59
2022/06/28 05:09:16;;;;;;;0.90;0.90;;;20.90;63.50;;;;;;4775091;29;43787;-59
2022/06/28 05:12:03;;;;;;;1.00;1.00;;;20.90;63.40;;;;;;4780536;29;43416;-59
2022/06/28 05:14:35;;;;;;;1.30;0.85;;;20.90;63.50;;;;;;4780107;29;43512;-59
2022/06/28 05:17:02;;;;;;;1.45;1.02;;;20.90;63.50;;;;;;4781140;29;45004;-59
2022/06/28 05:19:33;;;;;;;0.77;0.77;;;20.90;63.50;;;;;;4795722;29;43399;-59
2022/06/28 05:22:01;;;;;;;;;;;20.90;63.40;;;;;;4797470;29;43411;-59
2022/06/28 05:24:32;;;;;;;1.02;0.82;;;20.90;63.40;;;;;;4779772;29;43472;-59
2022/06/28 05:27:04;;;;;;;1.55;1.00;;;20.90;63.50;;;;;;4781094;29;45008;-59
2022/06/28 05:29:37;;;;;;;0.60;0.60;;;20.90;63.50;;;;;;4779580;29;43346;-59
2022/06/28 05:32:05;;;;;;;0.60;0.60;;;20.90;63.50;;;;;;4779762;29;43531;-59
2022/06/28 05:34:33;;;;;;;0.90;0.90;;;20.90;63.50;;;;;;4796511;29;43443;-59
2022/06/28 05:37:00;;;;;;;0.73;0.73;;;20.90;63.50;;;;;;4778942;29;45510;-59
2022/06/28 05:39:29;;;;;;;0.65;0.65;;;20.90;63.50;;;;;;4794910;29;43377;-59
2022/06/28 05:41:56;;;;;;;1.52;1.08;;;20.90;63.50;;;;;;4796653;29;43396;-59
2022/06/28 05:44:24;;;;;;;0.85;0.85;;;20.90;63.50;;;;;;4779202;29;43503;-59
2022/06/28 05:46:51;;;;;;;0.70;0.70;;;20.90;63.50;;;;;;4792548;29;43997;-59
2022/06/28 05:49:19;;;;;;;0.77;0.77;;;20.90;63.50;;;;;;4779255;29;43512;-59
2022/06/28 05:51:46;;;;;;;0.63;0.63;;;20.90;63.40;;;;;;4783281;29;43397;-59
2022/06/28 05:54:14;;;;;;;0.70;0.70;;;20.90;63.40;;;;;;4776634;29;43623;-59
2022/06/28 05:56:41;;;;;;;0.85;0.85;;;20.90;63.50;;;;;;4797319;29;44762;-59
2022/06/28 05:59:08;;;;;;;1.55;0.63;;;20.90;63.50;;;;;;4785673;29;43943;-60
2022/06/28 06:01:36;;;;;;;1.13;0.80;;;20.80;63.50;;;;;;4790817;29;43391;-59
2022/06/28 06:04:03;;;;;;;0.65;0.65;;;20.80;63.50;;;;;;4780047;29;43492;-59
2022/06/28 06:06:31;;;;;;;0.77;0.70;;;20.90;63.50;;;;;;4778697;29;44708;-59
2022/06/28 06:08:59;;;;;;;0.63;0.63;;;20.80;63.50;;;;;;4795702;29;43406;-59
2022/06/28 06:11:29;;;;;;;0.90;0.90;;;20.80;63.50;;;;;;4779286;29;43658;-59
2022/06/28 06:13:56;;;;;;;1.05;0.93;;;20.90;63.60;;;;;;4779523;29;43635;-59
2022/06/28 06:16:24;;;;;;;0.57;0.57;;;20.90;63.60;;;;;;4778724;29;43817;-59
2022/06/28 06:18:52;;;;;;;0.95;0.80;;;20.80;63.50;;;;;;4779911;29;43974;-59
2022/06/28 06:21:19;;;;;;;1.30;0.80;;;20.80;63.50;;;;;;4788591;29;43451;-59
2022/06/28 06:23:47;;;;;;;0.90;0.70;;;20.80;63.50;;;;;;4779598;29;43469;-59
2022/06/28 06:26:41;;;;;;;1.65;0.88;;;20.80;63.50;;;;;;4771416;29;44721;-59
2022/06/28 06:29:08;;;;;;;0.80;0.63;;;20.80;63.50;;;;;;4773338;29;43380;-59
2022/06/28 06:31:36;;;;;;;0.68;0.68;;;20.80;63.50;;;;;;4779908;29;43416;-59
2022/06/28 06:34:22;;;;;;;0.80;0.80;;;20.80;63.50;;;;;;4783298;29;43478;-59
2022/06/28 06:36:53;;;;;;;0.60;0.60;;;20.80;63.50;;;;;;4778709;29;43873;-59
2022/06/28 06:39:21;;;;;;;0.80;0.80;;;20.80;63.60;;;;;;4779165;29;43731;-59
2022/06/28 06:41:48;;;;;;;0.65;0.65;;;20.80;63.60;;;;;;4778966;29;43426;-59
2022/06/28 06:44:15;;;;;;;1.52;0.80;;;20.80;63.60;;;;;;4763236;29;43560;-59
2022/06/28 06:46:43;;;;;;;0.80;0.80;;;20.80;63.70;;;;;;4792745;29;45178;-59
2022/06/28 06:49:14;;;;;;;1.02;0.73;;;20.80;63.70;;;;;;4794793;29;43496;-59
2022/06/28 06:51:45;;;;;;;0.55;0.55;;;20.80;63.70;;;;;;4789898;29;43543;-60
2022/06/28 06:54:15;;;;;;;0.50;0.50;;;20.80;63.70;;;;;;4778160;29;43628;-59
2022/06/28 06:56:42;;;;;;;0.63;0.60;;;20.80;63.70;;;;;;4778071;29;44075;-60
2022/06/28 06:59:13;;;;;;;0.80;0.60;;;20.80;64.00;;;;;;4778564;29;43467;-60
2022/06/28 07:01:41;;;;;;;0.68;0.65;;;20.80;63.70;;;;;;4792700;29;43476;-60
2022/06/28 07:04:15;;;;;;;0.73;0.73;;;20.80;63.70;;;;;;4778131;29;43661;-60
2022/06/28 07:06:44;;;;;;;2.13;0.75;;;20.80;63.70;;;;;;4778690;29;43924;-60
2022/06/28 07:09:12;;;;;;;0.90;0.60;;;20.80;63.70;;;;;;4792928;29;43405;-60
2022/06/28 07:11:39;;;;;;;0.98;0.70;;;20.80;63.70;;;;;;4778299;29;43634;-60
2022/06/28 07:14:07;;;;;;;1.27;0.90;;;20.80;63.70;;;;;;4778462;29;43500;-60
2022/06/28 07:16:34;;;;;;;0.88;0.70;;;20.80;63.70;;;;;;4778534;29;44997;-60
2022/06/28 07:19:03;;;;;;;0.93;0.70;;;20.80;63.70;;;;;;4779126;29;43485;-60
2022/06/28 07:21:30;;;;;;;0.60;0.60;;;20.80;63.70;;;;;;4794696;29;43496;-60
2022/06/28 07:23:59;;;;;;;0.50;0.50;;;20.80;63.70;;;;;;4794441;29;43491;-60
2022/06/28 07:26:26;;;;;;;0.90;0.80;;;20.90;63.70;;;;;;4777864;29;45014;-60
2022/06/28 07:28:54;;;;;;;0.55;0.55;;;20.80;63.70;;;;;;4795566;29;43998;-60
2022/06/28 07:31:22;;;;;;;2.13;0.90;;;20.90;63.70;;;;;;4777814;29;43389;-60
2022/06/28 07:33:49;;;;;;;1.40;0.82;;;20.80;63.60;;;;;;4778226;29;43568;-60
2022/06/28 07:36:19;;;;;;;0.93;0.65;;;20.90;63.70;;;;;;4778153;29;44966;-60
2022/06/28 07:38:48;;;;;;;0.95;0.70;;;20.90;63.70;;;;;;4777635;29;43479;-60
2022/06/28 07:41:15;;;;;;;0.93;0.88;;;20.90;63.60;;;;;;4794863;29;43443;-60
2022/06/28 07:43:43;;;;;;;1.52;0.70;;;20.90;63.60;;;;;;4793911;29;43476;-60
2022/06/28 07:46:20;;;;;;;0.50;0.50;;;20.90;63.60;;;;;;4776819;29;43993;-59
2022/06/28 07:48:50;;;;;;;0.52;0.52;;;20.90;63.60;;;;;;4792849;29;44041;-60
2022/06/28 07:54:05;;;;;;;1.05;0.82;;;20.90;63.60;;;;;;4773953;29;43500;-59
2022/06/28 07:56:42;;;;;;;0.70;0.70;;;20.90;63.70;;;;;;4779792;29;45004;-60
2022/06/28 07:59:10;;;;;;;2.03;0.80;;;20.80;63.70;;;;;;4769440;29;45428;-61
2022/06/28 08:01:38;;;;;;;1.48;0.70;;;20.80;63.90;;;;;;4773608;29;43500;-61
2022/06/28 08:04:15;;;;;;;2.28;0.90;;;20.90;63.70;;;;;;4778754;29;43543;-61
2022/06/28 08:06:43;;;;;;;1.25;0.90;;;20.90;63.70;;;;;;4779009;29;45448;-61
2022/06/28 08:09:10;;;;;;;0.60;0.60;;;20.90;63.70;;;;;;4781293;29;43438;-61
2022/06/28 08:11:39;;;;;;;2.03;0.88;;;20.90;63.60;;;;;;4775798;29;43517;-61
2022/06/28 08:14:11;;;;;;;1.85;0.70;;;20.90;63.60;;;;;;4780948;29;43495;-61
2022/06/28 08:16:41;;;;;;;2.15;1.00;;;20.90;63.70;;;;;;4781187;29;45085;-62
2022/06/28 08:19:11;;;;;;;0.60;0.60;;;20.90;63.90;;;;;;4780125;29;43501;-61
2022/06/28 08:21:41;;;;;;;;;;;20.90;63.60;;;;;;4790357;29;43683;-61
2022/06/28 08:24:09;;;;;;;2.40;1.10;;;21.00;63.20;;;;;;4785819;29;43468;-61
2022/06/28 08:26:42;;;;;;;1.95;0.85;;;20.90;63.00;;;;;;4792648;29;44086;-61
2022/06/28 08:29:12;;;;;;;1.27;0.90;;;20.90;63.40;;;;;;4789625;29;43506;-60
2022/06/28 08:31:40;;;;;;;1.73;1.10;;;20.90;63.10;;;;;;4806121;29;43467;-60
2022/06/28 08:34:09;;;;;;;3.45;1.20;;;20.90;62.90;;;;;;4806046;29;44234;-60
2022/06/28 08:36:36;;;;;;;4.22;1.63;;;20.90;63.20;;;;;;4803043;29;44043;-60
2022/06/28 08:39:05;;;;;;;2.83;1.30;;;20.90;63.20;;;;;;4808478;29;44170;-60
2022/06/28 08:41:33;;;;;;;3.22;1.20;;;20.90;63.10;;;;;;4793834;29;43498;-60
2022/06/28 08:44:01;;;;;;;2.67;1.02;;;20.90;63.70;;;;;;4799660;29;43649;-61
2022/06/28 08:46:31;;;;;;;1.80;1.27;;;20.90;63.20;;;;;;4795657;29;44155;-60
2022/06/28 08:49:23;;;;;;;2.67;1.10;;;20.90;62.70;;;;;;4796393;29;43405;-60
2022/06/28 08:51:52;;;;;;;3.70;1.40;;;20.90;62.50;;;;;;4798961;29;43526;-60
2022/06/28 08:54:21;;;;;;;2.78;1.20;;;20.90;62.60;;;;;;4783170;29;43609;-60
2022/06/28 08:56:50;;;;;;;2.17;1.00;;;20.90;62.60;;;;;;4805374;29;45061;-61
2022/06/28 08:59:18;;;;;;;3.70;1.02;;;20.90;62.60;;;;;;4804298;29;44007;-61
2022/06/28 09:01:45;;;;;;;2.78;1.00;;;20.90;62.50;;;;;;4807138;29;43479;-61
2022/06/28 09:04:13;;;;;;;3.25;1.13;;;21.00;62.50;;;;;;4804264;29;43528;-61
2022/06/28 09:06:41;;;;;;;3.80;1.30;;;20.90;61.80;;;;;;4807025;29;43811;-60
2022/06/28 09:09:08;;;;;;;3.03;1.35;;;20.90;61.70;;;;;;4801052;29;44253;-60
2022/06/28 09:11:41;;;;;;;2.75;0.85;;;20.90;61.00;;;;;;4807052;29;43493;-60
2022/06/28 09:14:35;;;;;;;2.63;1.13;;;20.90;61.30;;;;;;4796698;29;43463;-60
2022/06/28 09:17:24;;;;;;;2.42;1.20;;;20.90;60.80;;;;;;4794121;29;44933;-60
2022/06/28 09:20:00;;;;;;;1.42;1.00;;;20.90;61.20;;;;;;4787153;29;44021;-60
2022/06/28 09:22:37;;;;;;;2.72;1.05;;;21.00;60.90;;;;;;4796019;29;43588;-60
2022/06/28 09:25:25;;;;;;;3.08;1.10;;;21.00;60.80;;;;;;4793105;29;43471;-60
2022/06/28 09:27:57;;;;;;;3.13;1.00;;;21.00;61.00;;;;;;4788275;29;44182;-60
2022/06/28 09:30:27;;;;;;;2.45;1.15;;;21.00;60.50;;;;;;4796082;29;43443;-60
2022/06/28 09:32:55;;;;;;;1.90;0.90;;;21.00;59.80;;;;;;4796953;29;43426;-60
2022/06/28 09:35:24;;;;;;;3.83;1.02;;;21.00;60.40;;;;;;4796379;29;43762;-60
2022/06/28 09:37:55;;;;;;;3.38;1.20;;;21.00;59.90;;;;;;4794975;29;45181;-60
2022/06/28 09:40:25;;;;;;;2.08;1.10;;;21.00;60.00;;;;;;4767369;29;44170;-60
2022/06/28 09:43:05;;;;;;;1.95;0.90;;;21.10;60.10;;;;;;4796600;29;43444;-60
2022/06/28 09:45:33;;;;;;;2.83;1.00;;;21.10;60.10;;;;;;4795226;29;43538;-60
2022/06/28 09:48:01;;;;;;;2.78;1.15;;;21.10;60.40;;;;;;4795301;29;45038;-60
2022/06/28 09:50:34;;;;;;;1.50;1.00;;;21.20;60.90;;;;;;4798918;29;45085;-60
2022/06/28 09:53:04;;;;;;;2.20;1.20;;;21.20;60.90;;;;;;4796286;29;43540;-60
2022/06/28 09:55:36;;;;;;;2.95;0.93;;;21.20;61.00;;;;;;4792905;29;43532;-60
2022/06/28 09:58:04;;;;;;;2.85;1.05;;;21.30;61.00;;;;;;4802904;29;45285;-60
2022/06/28 10:00:34;;;;;;;1.45;0.80;;;21.30;61.10;;;;;;4798968;29;43464;-60
2022/06/28 10:03:02;;;;;;;2.20;1.08;;;21.30;61.10;;;;;;4803280;29;43529;-60
2022/06/28 10:05:31;;;;;;;2.20;1.00;;;21.30;61.00;;;;;;4807761;29;43406;-60
2022/06/28 10:07:59;;;;;;;3.70;1.30;;;21.40;61.00;;;;;;4806401;29;45162;-60
2022/06/28 10:10:26;;;;;;;2.33;1.10;;;21.40;60.50;;;;;;4797485;29;43462;-60
2022/06/28 10:15:47;;;;;;;3.20;1.00;;;21.40;58.80;;;;;;4798886;29;43524;-60
2022/06/28 10:18:19;;;;;;;0.77;0.77;;;21.40;59.00;;;;;;4807173;29;45020;-60
2022/06/28 10:20:47;;;;;;;2.80;1.30;;;21.40;59.30;;;;;;4802018;29;43495;-60
2022/06/28 10:23:27;;;;;;;1.90;0.77;;;21.40;59.80;;;;;;4799930;29;43489;-60
2022/06/28 10:26:08;;;;;;;2.05;1.02;;;21.50;60.10;;;;;;4793857;29;43526;-60
2022/06/28 10:28:46;;;;;;;2.58;1.10;;;21.50;59.40;;;;;;4796972;29;44042;-60
2022/06/28 10:31:25;;;;;;;2.53;1.00;;;21.50;59.60;;;;;;4796748;29;44019;-60
2022/06/28 10:34:14;;;;;;;3.13;1.20;;;21.50;59.70;;;;;;4797484;29;43489;-60
2022/06/28 10:36:44;;;;;;;1.88;1.10;;;21.50;59.90;;;;;;4799218;29;43628;-60
2022/06/28 10:39:13;;;;;;;1.77;1.20;;;21.50;60.20;;;;;;4799392;29;45206;-59
2022/06/28 10:41:42;;;;;;;2.25;1.30;;;21.50;59.90;;;;;;4799202;29;43470;-60
2022/06/28 10:44:32;;;;;;;1.75;1.00;;;21.50;59.40;;;;;;4805461;29;44182;-60
2022/06/28 10:47:06;;;;;;;2.80;1.83;;;21.50;59.90;;;;;;4799715;29;43558;-60
2022/06/28 10:49:45;;;;;;;1.95;0.85;;;21.60;60.20;;;;;;4805226;29;44257;-60
2022/06/28 10:52:17;;;;;;;2.90;0.93;;;21.60;60.40;;;;;;4801853;29;44298;-60
2022/06/28 10:54:56;;;;;;;2.83;1.10;;;21.60;60.60;;;;;;4796833;29;43502;-60
2022/06/28 10:57:34;;;;;;;3.40;1.00;;;21.70;60.60;;;;;;4804789;29;43729;-60
2022/06/28 11:00:22;;;;;;;1.75;0.93;;;21.70;60.50;;;;;;4801278;29;43982;-60
2022/06/28 11:03:02;;;;;;;4.28;1.08;;;21.80;59.30;;;;;;5018846;27;43589;-59
2022/06/28 11:05:48;;;;;;;3.22;1.20;;;21.80;58.70;;;;;;5031597;27;44010;-59
2022/06/28 11:08:54;;;;;;;3.65;1.15;;;21.80;59.40;;;;;;5025107;27;43513;-59
2022/06/28 11:11:22;;;;;;;2.38;1.35;;;21.80;59.20;;;;;;5020154;27;43487;-59
2022/06/28 11:14:31;;;;;;;3.30;1.30;;;21.80;58.70;;;;;;5019348;27;44982;-59
2022/06/28 11:17:33;;;;;;;2.25;1.33;;;21.80;59.20;;;;;;5011871;27;43984;-59
2022/06/28 11:20:06;;;;;;;2.28;1.10;;;21.80;59.40;;;;;;5026664;27;43389;-59
2022/06/28 11:22:42;;;;;;;2.03;1.10;;;21.90;59.00;;;;;;5019737;27;43560;-59
2022/06/28 11:25:13;;;;;;;5.10;1.40;;;21.90;59.50;;;;;;5041698;27;45000;-59
2022/06/28 11:27:52;;;;;;;2.60;1.30;;;21.90;59.70;;;;;;5032290;27;44049;-59
2022/06/28 11:30:28;;;;;;;2.65;1.30;;;21.90;59.30;;;;;;5033464;27;43484;-59
2022/06/28 11:32:57;;;;;;;3.72;1.45;;;21.90;58.00;;;;;;5041030;27;43601;-59
2022/06/28 11:35:27;;;;;;;2.78;1.20;;;22.00;58.00;;;;;;5042527;27;45244;-59
2022/06/28 11:37:57;;;;;;;3.15;1.30;;;22.00;58.50;;;;;;5014138;27;44131;-59
2022/06/28 11:40:38;;;;;;;1.98;1.30;;;22.00;58.60;;;;;;5010850;27;43426;-59
2022/06/28 11:43:13;;;;;;;1.98;1.73;;;22.10;58.80;;;;;;5014983;27;43557;-59
2022/06/28 11:45:48;;;;;;;2.88;1.10;;;22.10;58.80;;;;;;5030159;27;45151;-60
2022/06/28 11:48:18;;;;;;;2.53;1.27;;;22.10;59.10;;;;;;5014394;27;43980;-59
2022/06/28 11:50:50;;;;;;;2.22;1.20;;;22.10;59.10;;;;;;5025474;27;43421;-59
2022/06/28 11:53:19;;;;;;;1.33;1.23;;;22.10;59.20;;;;;;5064030;27;43575;-59
2022/06/28 11:55:52;;;;;;;1.95;1.33;;;22.10;59.10;;;;;;5023495;27;44900;-60
2022/06/28 11:58:28;;;;;;;2.83;1.10;;;22.20;59.30;;;;;;5031964;27;43969;-60
2022/06/28 12:01:03;;;;;;;3.00;1.27;;;22.20;59.30;;;;;;5087019;27;43485;-59
2022/06/28 12:03:32;;;;;;;3.85;1.20;;;22.30;59.20;;;;;;5031351;27;43495;-59
2022/06/28 12:06:02;;;;;;;2.35;1.15;;;22.20;59.20;;;;;;5022709;27;44707;-59
2022/06/28 12:08:46;;;;;;;2.30;1.05;;;22.30;59.20;;;;;;5023890;27;43952;-59
2022/06/28 12:11:29;;;;;;;2.03;1.02;;;22.20;59.20;;;;;;5049425;27;43515;-59
2022/06/28 12:14:15;;;;;;;2.88;1.65;;;22.20;59.30;;;;;;5026207;27;44110;-59
2022/06/28 12:16:44;;;;;;;2.67;1.13;;;22.30;59.40;;;;;;5027403;27;45073;-59
2022/06/28 12:19:33;;;;;;;3.50;1.25;;;22.30;59.40;;;;;;5066490;27;43508;-60
2022/06/28 12:22:23;;;;;;;2.45;1.40;;;22.30;58.00;;;;;;5043540;27;43607;-59
2022/06/28 12:24:55;;;;;;;1.60;1.10;;;22.30;59.20;;;;;;4993561;27;43589;-59
2022/06/28 12:27:27;;;;;;;2.00;1.20;;;22.30;59.10;;;;;;5057582;27;44759;-59
2022/06/28 12:29:56;;;;;;;1.75;1.10;;;22.30;59.20;;;;;;5055404;27;43424;-59
2022/06/28 12:32:24;;;;;;;3.05;1.17;;;22.40;58.90;;;;;;5024443;27;43370;-59
2022/06/28 12:35:12;;;;;;;1.98;1.05;;;22.50;58.50;;;;;;5068158;27;43461;-60
2022/06/28 12:37:39;;;;;;;2.90;1.40;;;22.50;58.20;;;;;;5051141;27;43880;-60
2022/06/28 12:40:08;;;;;;;3.70;1.52;;;22.60;57.90;;;;;;5052339;27;44140;-59
2022/06/28 12:42:36;;;;;;;2.65;1.20;;;22.60;57.90;;;;;;5009686;27;43427;-60
2022/06/28 12:45:05;;;;;;;2.58;1.20;;;22.70;58.10;;;;;;5065313;27;43592;-59
2022/06/28 12:47:35;;;;;;;2.58;1.20;;;22.70;58.20;;;;;;5060576;27;45024;-60
2022/06/28 12:50:05;;;;;;;1.98;1.30;;;22.70;58.30;;;;;;5040804;27;43998;-59
2022/06/28 12:52:35;;;;;;;3.65;1.40;;;22.70;58.30;;;;;;5004780;27;43509;-60
2022/06/28 12:55:04;;;;;;;2.80;1.40;;;22.70;58.10;;;;;;5059130;27;43495;-59
2022/06/28 12:57:31;;;;;;;3.63;1.60;;;22.80;57.90;;;;;;5065050;27;45166;-60
2022/06/28 12:59:59;;;;;;;2.03;1.27;;;22.80;57.80;;;;;;5024115;27;44131;-60
2022/06/28 13:02:28;;;;;;;3.22;1.63;;;22.80;57.90;;;;;;4999276;27;43550;-59
2022/06/28 13:04:56;;;;;;;2.30;1.10;;;22.80;57.60;;;;;;5002222;27;43552;-59
2022/06/28 13:07:24;;;;;;;2.70;1.13;;;22.90;57.70;;;;;;5050839;27;45119;-60
2022/06/28 13:09:51;;;;;;;2.45;1.20;;;22.90;57.80;;;;;;5002128;27;43983;-59
2022/06/28 13:12:19;;;;;;;2.72;1.05;;;22.90;58.00;;;;;;5060279;27;43437;-59
2022/06/28 13:14:52;;;;;;;2.15;1.25;;;22.80;58.00;;;;;;5047811;27;43428;-59
2022/06/28 13:17:23;;;;;;;3.17;1.45;;;22.80;58.20;;;;;;5049049;27;45031;-59
2022/06/28 13:19:51;;;;;;;2.55;1.42;;;22.80;58.50;;;;;;5005305;27;43367;-59
2022/06/28 13:22:39;;;;;;;1.85;1.00;;;22.80;58.60;;;;;;5059158;27;43477;-59
2022/06/28 13:25:07;;;;;;;3.45;1.20;;;22.80;58.70;;;;;;5047481;27;43619;-59